Time;durP1;ratioP1;P1;durP2;ratioP2;P2;SDS_P1;SDS_P2;PMS_P1;PMS_P2;Temp;Humidity;BMP_temperature;BMP_pressure;BME280_temperature;BME280_humidity;BME280_pressure;Samples;Min_cycle;Max_cycle;Signal;HPM_P1;HPM_P2
2022/11/20 00:02:46;;;;;;;50.45;22.25;;;;;;;5.06;100.00;100221.69;8359901;28;20623;-52
2022/11/20 00:06:46;;;;;;;50.40;23.05;;;;;;;5.03;100.00;100205.84;8360203;28;20520;-51
2022/11/20 00:10:47;;;;;;;55.60;23.05;;;;;;;5.02;100.00;100204.09;8359468;28;20513;-51
2022/11/20 00:14:47;;;;;;;52.63;22.70;;;;;;;5.01;100.00;100210.44;8360510;28;20044;-52
2022/11/20 00:18:49;;;;;;;52.50;22.88;;;;;;;4.97;100.00;100217.84;8359892;28;20052;-49
2022/11/20 00:22:50;;;;;;;47.67;22.80;;;;;;;5.00;100.00;100216.78;8359602;28;20037;-49
2022/11/20 00:26:51;;;;;;;53.58;23.60;;;;;;;4.94;100.00;100206.53;8359728;28;20096;-49
2022/11/20 00:30:51;;;;;;;48.67;21.55;;;;;;;4.93;100.00;100215.50;8357658;28;20128;-49
2022/11/20 00:34:52;;;;;;;50.45;22.73;;;;;;;4.95;100.00;100224.28;8357761;28;20055;-53
2022/11/20 00:38:54;;;;;;;56.08;25.88;;;;;;;5.04;100.00;100223.63;8357862;28;20090;-50
2022/11/20 00:42:55;;;;;;;50.05;21.88;;;;;;;5.06;100.00;100227.88;8357244;28;20380;-51
2022/11/20 00:46:56;;;;;;;49.78;23.00;;;;;;;5.13;100.00;100225.63;8358703;28;20107;-49
2022/11/20 00:50:57;;;;;;;54.38;23.23;;;;;;;5.19;100.00;100222.47;8357482;28;20037;-52
2022/11/20 00:54:57;;;;;;;52.25;23.50;;;;;;;5.14;100.00;100208.56;8358625;28;20498;-50
2022/11/20 00:59:00;;;;;;;51.38;23.70;;;;;;;5.00;100.00;100211.44;8357155;28;20449;-49
2022/11/20 01:03:01;;;;;;;52.13;22.17;;;;;;;5.01;100.00;100208.63;8357298;28;20514;-50
2022/11/20 01:07:01;;;;;;;51.08;22.95;;;;;;;5.00;100.00;100209.59;8358354;28;20464;-49
2022/11/20 01:11:05;;;;;;;52.10;24.02;;;;;;;4.96;100.00;100213.47;8358439;28;20040;-49
2022/11/20 01:15:06;;;;;;;56.67;23.37;;;;;;;4.98;100.00;100202.63;8358159;28;20075;-50
2022/11/20 01:19:11;;;;;;;50.20;21.83;;;;;;;4.95;100.00;100208.22;8358483;28;20041;-51
2022/11/20 01:23:11;;;;;;;52.80;24.15;;;;;;;4.91;100.00;100190.66;8357985;28;20051;-49
2022/11/20 01:27:12;;;;;;;51.40;22.80;;;;;;;4.80;100.00;100187.91;8357497;28;20499;-52
2022/11/20 01:31:17;;;;;;;55.28;24.05;;;;;;;4.73;100.00;100175.94;8356821;28;20044;-50
2022/11/20 01:35:17;;;;;;;49.22;22.58;;;;;;;4.64;100.00;100187.34;8358037;28;20029;-49
2022/11/20 01:39:22;;;;;;;46.20;21.02;;;;;;;4.64;100.00;100184.66;8358046;28;20037;-49
2022/11/20 01:43:23;;;;;;;47.65;22.15;;;;;;;4.64;100.00;100190.00;8357956;28;20037;-49
2022/11/20 01:47:39;;;;;;;50.40;21.05;;;;;;;4.62;100.00;100184.75;8373091;28;20108;-49
2022/11/20 01:51:48;;;;;;;45.83;20.58;;;;;;;4.59;100.00;100184.13;8357669;28;20052;-50
2022/11/20 01:55:53;;;;;;;48.58;20.67;;;;;;;4.60;100.00;100186.69;8364563;28;20445;-49
2022/11/20 01:59:59;;;;;;;46.53;20.85;;;;;;;4.65;100.00;100181.88;8362258;28;20036;-50
2022/11/20 02:04:01;;;;;;;40.60;20.35;;;;;;;4.63;100.00;100169.56;8361689;28;20468;-49
2022/11/20 02:08:03;;;;;;;53.63;23.38;;;;;;;4.63;100.00;100169.56;8330629;28;20060;-49
2022/11/20 02:12:05;;;;;;;47.10;21.85;;;;;;;4.62;100.00;100181.22;8344030;28;20040;-49
2022/11/20 02:16:10;;;;;;;54.72;25.08;;;;;;;4.65;100.00;100172.97;8363796;28;20111;-53
2022/11/20 02:20:11;;;;;;;53.45;22.52;;;;;;;4.61;100.00;100166.13;8363904;28;20049;-49
2022/11/20 02:24:15;;;;;;;53.65;24.17;;;;;;;4.54;100.00;100159.53;8363399;28;20570;-50
2022/11/20 02:28:17;;;;;;;48.58;22.50;;;;;;;4.49;100.00;100161.69;8361724;28;20494;-50
2022/11/20 02:32:23;;;;;;;54.25;23.30;;;;;;;4.42;100.00;100161.25;8362007;28;20383;-49
2022/11/20 02:36:27;;;;;;;58.65;25.25;;;;;;;4.40;100.00;100168.56;8362973;28;20041;-50
2022/11/20 02:40:28;;;;;;;61.27;25.30;;;;;;;4.45;100.00;100181.59;8363739;28;20105;-49
2022/11/20 02:44:29;;;;;;;53.85;22.92;;;;;;;4.51;100.00;100176.66;8362674;28;20053;-49
2022/11/20 02:48:29;;;;;;;51.78;23.48;;;;;;;4.56;100.00;100173.63;8363090;28;20044;-48
2022/11/20 02:52:30;;;;;;;55.05;24.38;;;;;;;4.62;100.00;100174.06;8376480;28;20048;-53
2022/11/20 02:56:31;;;;;;;50.85;22.13;;;;;;;4.56;100.00;100165.59;8361937;28;20045;-50
2022/11/20 03:00:32;;;;;;;54.97;22.48;;;;;;;4.53;100.00;100158.66;8359796;28;20040;-49
2022/11/20 03:04:32;;;;;;;54.40;22.92;;;;;;;4.56;100.00;100162.94;8361643;28;20045;-49
2022/11/20 03:08:33;;;;;;;53.13;22.80;;;;;;;4.58;100.00;100158.34;8362184;28;20052;-49
2022/11/20 03:12:34;;;;;;;58.30;25.23;;;;;;;4.56;100.00;100158.44;8376934;28;20045;-49
2022/11/20 03:16:34;;;;;;;54.95;23.00;;;;;;;4.62;100.00;100154.44;8361750;28;20106;-49
2022/11/20 03:20:35;;;;;;;54.72;23.50;;;;;;;4.57;100.00;100160.16;8361491;28;20037;-49
2022/11/20 03:24:36;;;;;;;53.90;24.33;;;;;;;4.57;100.00;100149.44;8360493;28;20144;-50
2022/11/20 03:28:37;;;;;;;55.47;23.25;;;;;;;4.58;100.00;100150.31;8361522;28;20114;-51
2022/11/20 03:32:37;;;;;;;49.95;22.40;;;;;;;4.62;100.00;100141.06;8361234;28;20395;-49
2022/11/20 03:36:40;;;;;;;57.17;25.90;;;;;;;4.60;100.00;100148.38;8361066;28;20045;-49
2022/11/20 03:40:40;;;;;;;57.13;24.35;;;;;;;4.61;100.00;100139.38;8359401;28;20049;-49
2022/11/20 03:44:41;;;;;;;55.53;23.40;;;;;;;4.60;100.00;100132.31;8359828;28;20048;-49
2022/11/20 03:48:42;;;;;;;62.35;25.08;;;;;;;4.54;100.00;100124.75;8360346;28;20051;-50
2022/11/20 03:52:42;;;;;;;54.03;23.20;;;;;;;4.55;100.00;100123.75;8357558;28;20041;-48
2022/11/20 03:56:43;;;;;;;61.75;25.02;;;;;;;4.55;100.00;100131.78;8360935;28;20041;-48
2022/11/20 04:00:45;;;;;;;59.78;26.10;;;;;;;4.51;100.00;100123.13;8359352;28;20037;-48
2022/11/20 04:04:45;;;;;;;52.05;22.55;;;;;;;4.59;100.00;100126.09;8359032;28;20452;-49
2022/11/20 04:08:46;;;;;;;59.22;24.70;;;;;;;4.53;100.00;100126.56;8360607;28;20086;-48
2022/11/20 04:12:47;;;;;;;59.72;26.13;;;;;;;4.49;100.00;100118.84;8357631;28;20045;-48
2022/11/20 04:16:47;;;;;;;54.63;23.88;;;;;;;4.48;100.00;100119.84;8374564;28;20048;-48
2022/11/20 04:20:48;;;;;;;59.03;24.65;;;;;;;4.51;100.00;100127.63;8359430;28;20036;-48
2022/11/20 04:24:48;;;;;;;58.90;23.63;;;;;;;4.60;100.00;100121.59;8358306;28;20037;-48
2022/11/20 04:28:49;;;;;;;61.13;24.95;;;;;;;4.57;100.00;100127.19;8359373;28;20045;-48
2022/11/20 04:32:50;;;;;;;58.13;24.48;;;;;;;4.54;100.00;100127.41;8359381;28;20510;-48
2022/11/20 04:36:50;;;;;;;60.08;25.88;;;;;;;4.52;100.00;100123.97;8358049;28;20037;-48
2022/11/20 04:40:56;;;;;;;57.95;25.02;;;;;;;4.59;100.00;100127.91;8359066;28;20518;-50
2022/11/20 04:44:57;;;;;;;60.10;26.50;;;;;;;4.61;100.00;100129.53;8391014;28;20041;-48
2022/11/20 04:48:58;;;;;;;52.08;23.67;;;;;;;4.68;100.00;100130.78;8359006;28;20067;-48
2022/11/20 04:52:59;;;;;;;55.15;24.30;;;;;;;4.78;100.00;100122.91;8358431;28;20037;-48
2022/11/20 04:56:59;;;;;;;57.42;25.10;;;;;;;4.87;100.00;100130.25;8359130;28;20037;-49
2022/11/20 05:01:02;;;;;;;57.78;24.05;;;;;;;4.81;100.00;100125.34;8356817;28;20041;-48
2022/11/20 05:05:04;;;;;;;59.92;24.67;;;;;;;4.80;100.00;100129.00;8358197;28;20064;-51
2022/11/20 05:09:04;;;;;;;58.67;25.42;;;;;;;4.80;100.00;100127.19;8356706;28;20091;-48
2022/11/20 05:13:05;;;;;;;62.40;24.58;;;;;;;4.73;100.00;100133.94;8354882;28;20463;-51
2022/11/20 05:17:05;;;;;;;61.75;26.95;;;;;;;4.74;100.00;100134.81;8371900;28;20044;-49
2022/11/20 05:21:08;;;;;;;61.83;24.70;;;;;;;4.74;100.00;100134.81;8355481;28;20111;-51
2022/11/20 05:25:08;;;;;;;61.95;24.95;;;;;;;4.78;100.00;100137.16;8355433;28;20072;-49
2022/11/20 05:29:11;;;;;;;59.15;23.55;;;;;;;4.75;100.00;100133.84;8355408;28;20052;-50
2022/11/20 05:33:12;;;;;;;54.13;23.90;;;;;;;4.74;100.00;100134.81;8353070;28;20075;-47
2022/11/20 05:37:13;;;;;;;61.97;25.00;;;;;;;4.75;100.00;100131.16;8371224;28;20029;-50
2022/11/20 05:41:16;;;;;;;68.72;26.77;;;;;;;4.76;100.00;100127.53;8354473;28;20460;-51
2022/11/20 05:45:17;;;;;;;59.80;26.02;;;;;;;4.63;100.00;100132.94;8354886;28;20510;-50
2022/11/20 05:49:18;;;;;;;63.72;25.08;;;;;;;4.62;100.00;100130.38;8354693;28;20410;-49
2022/11/20 05:53:18;;;;;;;59.60;26.13;;;;;;;4.74;100.00;100122.28;8353895;28;20457;-48
2022/11/20 05:57:19;;;;;;;61.72;26.17;;;;;;;4.69;100.00;100127.13;8354441;28;20037;-50
2022/11/20 06:01:22;;;;;;;62.60;25.85;;;;;;;4.73;100.00;100119.72;8357150;28;20396;-49
2022/11/20 06:05:23;;;;;;;62.88;25.33;;;;;;;4.64;100.00;100123.09;8355122;28;20129;-49
2022/11/20 06:09:23;;;;;;;58.20;24.52;;;;;;;4.59;100.00;100119.88;8357631;28;20033;-51
2022/11/20 06:13:24;;;;;;;56.92;25.52;;;;;;;4.58;100.00;100121.72;8355474;28;20186;-49
2022/11/20 06:17:25;;;;;;;60.60;24.48;;;;;;;4.60;100.00;100110.91;8354397;28;20404;-51
2022/11/20 06:21:26;;;;;;;63.22;25.13;;;;;;;4.57;100.00;100111.97;8356976;28;20040;-47
2022/11/20 06:25:26;;;;;;;56.40;25.30;;;;;;;4.55;100.00;100119.28;8354415;28;20025;-50
2022/11/20 06:29:27;;;;;;;56.58;26.13;;;;;;;4.54;100.00;100130.09;8346711;28;20045;-47
2022/11/20 06:33:29;;;;;;;65.03;27.27;;;;;;;4.60;100.00;100126.97;8335616;28;20140;-48
2022/11/20 06:37:29;;;;;;;61.30;26.02;;;;;;;4.63;100.00;100137.44;8337526;28;20042;-48
2022/11/20 06:41:30;;;;;;;65.57;24.77;;;;;;;4.66;100.00;100137.22;8351869;28;20123;-49
2022/11/20 06:45:31;;;;;;;60.38;25.33;;;;;;;4.75;100.00;100148.09;8357650;28;20400;-48
2022/11/20 06:49:31;;;;;;;67.97;26.58;;;;;;;4.80;100.00;100145.06;8356083;28;20096;-48
2022/11/20 06:53:33;;;;;;;61.58;25.10;;;;;;;4.80;100.00;100156.66;8357922;28;20045;-51
2022/11/20 06:57:33;;;;;;;65.32;26.67;;;;;;;4.73;100.00;100155.38;8357411;28;20047;-48
2022/11/20 07:01:34;;;;;;;63.35;26.20;;;;;;;4.81;100.00;100157.47;8357658;28;20045;-49
2022/11/20 07:05:36;;;;;;;66.53;26.95;;;;;;;4.86;100.00;100166.03;8358694;28;20060;-49
2022/11/20 07:09:37;;;;;;;62.00;26.55;;;;;;;4.86;100.00;100163.38;8358343;28;20051;-50
2022/11/20 07:13:37;;;;;;;64.80;25.75;;;;;;;4.89;100.00;100163.13;8358112;28;20044;-48
2022/11/20 07:17:38;;;;;;;63.15;25.98;;;;;;;4.84;100.00;100173.31;8357355;28;20037;-48
2022/11/20 07:21:38;;;;;;;61.22;24.92;;;;;;;4.82;100.00;100181.47;8355840;28;20041;-49
2022/11/20 07:25:39;;;;;;;64.05;24.30;;;;;;;4.82;100.00;100176.13;8357015;28;20499;-50
2022/11/20 07:29:39;;;;;;;61.58;25.67;;;;;;;4.81;100.00;100173.56;8358164;28;20041;-48
2022/11/20 07:33:40;;;;;;;68.80;26.63;;;;;;;4.79;100.00;100170.16;8339119;28;20060;-50
2022/11/20 07:37:41;;;;;;;67.43;27.23;;;;;;;4.94;100.00;100169.03;8323561;28;20450;-48
2022/11/20 07:41:42;;;;;;;69.97;27.42;;;;;;;4.89;100.00;100163.13;8323705;28;20304;-50
2022/11/20 07:45:42;;;;;;;69.95;27.83;;;;;;;4.86;100.00;100171.41;8324742;28;20422;-51
2022/11/20 07:49:43;;;;;;;67.97;27.67;;;;;;;4.86;100.00;100166.03;8352387;28;20044;-50
2022/11/20 07:53:43;;;;;;;72.60;28.00;;;;;;;4.86;100.00;100166.03;8356407;28;20045;-49
2022/11/20 07:57:44;;;;;;;68.82;27.98;;;;;;;4.89;100.00;100164.00;8355857;28;20036;-48
2022/11/20 08:01:45;;;;;;;77.13;30.02;;;;;;;4.94;100.00;100163.66;8354388;28;20044;-48
2022/11/20 08:05:45;;;;;;;71.57;28.13;;;;;;;4.88;100.00;100153.41;8356201;28;20131;-50
2022/11/20 08:09:46;;;;;;;71.70;28.02;;;;;;;4.93;100.00;100162.81;8355297;28;20498;-49
2022/11/20 08:14:18;;;;;;;71.13;28.17;;;;;;;4.96;100.00;100141.16;8354745;28;20048;-49
2022/11/20 08:18:10;;;;;;;75.57;29.98;;;;;;;5.07;100.00;100143.03;8350844;28;20486;-47
2022/11/20 08:22:11;;;;;;;68.03;27.60;;;;;;;5.12;100.00;100152.41;8354511;28;20041;-48
2022/11/20 08:26:12;;;;;;;76.20;31.83;;;;;;;5.31;100.00;100151.91;8337537;28;20033;-50
2022/11/20 08:30:13;;;;;;;80.38;29.15;;;;;;;5.57;100.00;100148.06;8346202;28;20383;-49
2022/11/20 08:34:14;;;;;;;69.63;29.17;;;;;;;5.40;100.00;100159.22;8354787;28;20126;-49
2022/11/20 08:38:14;;;;;;;67.80;26.75;;;;;;;5.33;100.00;100160.66;8352267;28;20029;-49
2022/11/20 08:42:15;;;;;;;74.97;30.85;;;;;;;5.27;100.00;100158.44;8337830;28;20582;-49
2022/11/20 08:46:16;;;;;;;63.97;24.27;;;;;;;5.25;100.00;100155.03;8353766;28;20048;-51
2022/11/20 08:50:17;;;;;;;69.82;26.38;;;;;;;5.46;100.00;100161.44;8349930;28;20041;-49
2022/11/20 08:54:21;;;;;;;62.83;26.25;;;;;;;5.45;100.00;100149.00;8351941;28;20384;-50
2022/11/20 08:58:21;;;;;;;66.82;25.70;;;;;;;5.39;100.00;100154.81;8363022;28;20037;-49
2022/11/20 09:02:22;;;;;;;71.63;28.23;;;;;;;5.52;100.00;100153.78;8351319;28;20064;-49
2022/11/20 09:06:23;;;;;;;70.22;27.52;;;;;;;5.61;100.00;100144.16;8339839;28;20071;-48
2022/11/20 09:10:24;;;;;;;63.80;25.50;;;;;;;5.52;100.00;100152.94;8338213;28;20106;-50
2022/11/20 09:14:28;;;;;;;61.42;24.10;;;;;;;5.45;100.00;100143.63;8354553;28;20045;-48
2022/11/20 09:18:31;;;;;;;59.97;23.65;;;;;;;5.56;100.00;100127.59;8343916;28;20183;-47
2022/11/20 09:22:32;;;;;;;59.25;23.42;;;;;;;5.62;100.00;100129.78;8346847;28;20592;-47
2022/11/20 09:26:33;;;;;;;56.58;22.75;;;;;;;5.63;100.00;100143.09;8351707;28;20495;-48
2022/11/20 09:30:34;;;;;;;61.85;23.42;;;;;;;5.71;100.00;100131.78;8349708;28;20656;-50
2022/11/20 09:34:34;;;;;;;55.05;24.08;;;;;;;5.79;100.00;100129.31;8351319;28;20537;-51
2022/11/20 09:38:35;;;;;;;51.70;21.70;;;;;;;5.97;100.00;100130.59;8351137;28;20394;-49
2022/11/20 09:43:01;;;;;;;47.72;21.25;;;;;;;5.86;100.00;100133.28;8351440;28;20045;-48
2022/11/20 09:47:14;;;;;;;56.28;22.73;;;;;;;5.84;100.00;100132.53;8347217;28;20041;-48
2022/11/20 09:51:46;;;;;;;57.45;22.90;;;;;;;5.83;100.00;100128.16;8342719;28;20040;-46
2022/11/20 09:55:48;;;;;;;59.13;25.20;;;;;;;5.76;100.00;100132.25;8377610;28;20502;-48
2022/11/20 09:59:55;;;;;;;53.70;23.70;;;;;;;5.83;100.00;100129.00;8347760;28;20380;-48
2022/11/20 10:04:13;;;;;;;55.15;22.73;;;;;;;5.89;100.00;100133.03;8347052;28;20045;-52
2022/11/20 10:08:30;;;;;;;61.22;24.67;;;;;;;5.82;100.00;100124.63;8349591;28;20124;-48
2022/11/20 10:13:00;;;;;;;62.67;26.17;;;;;;;5.92;100.00;100111.34;8349726;28;20521;-49
2022/11/20 10:22:03;;;;;;;54.38;24.13;;;;;;;6.03;100.00;100097.09;8311599;28;20398;-49
2022/11/20 10:26:28;;;;;;;52.97;23.92;;;;;;;6.05;100.00;100082.56;8309333;28;20118;-48
2022/11/20 10:30:30;;;;;;;56.90;24.05;;;;;;;6.05;100.00;100074.50;8314095;28;20454;-51
2022/11/20 10:34:46;;;;;;;54.88;23.63;;;;;;;6.10;100.00;100069.59;8309875;28;20068;-49
2022/11/20 10:38:56;;;;;;;47.55;21.17;;;;;;;6.16;100.00;100068.28;8308551;28;20500;-48
2022/11/20 10:43:07;;;;;;;49.58;22.10;;;;;;;6.07;100.00;100063.66;8328577;28;20095;-52
2022/11/20 10:47:13;;;;;;;46.83;21.75;;;;;;;6.06;100.00;100054.75;8307590;28;20120;-48
2022/11/20 10:51:39;;;;;;;57.10;24.40;;;;;;;6.10;100.00;100056.19;8310920;28;20064;-49
2022/11/20 10:55:46;;;;;;;50.95;23.13;;;;;;;6.32;100.00;100066.91;8310782;28;20046;-48
2022/11/20 11:00:01;;;;;;;58.50;24.92;;;;;;;6.33;100.00;100043.59;8308562;28;20447;-49
2022/11/20 11:04:02;;;;;;;55.08;23.67;;;;;;;6.42;100.00;100038.34;8309858;28;20073;-49
2022/11/20 11:08:09;;;;;;;44.33;20.67;;;;;;;6.37;100.00;100029.78;8313145;28;20518;-50
2022/11/20 11:12:11;;;;;;;50.63;23.35;;;;;;;6.38;100.00;100023.47;8310893;28;20454;-49
2022/11/20 11:16:26;;;;;;;45.33;19.42;;;;;;;6.39;100.00;100017.09;8309963;28;20045;-48
2022/11/20 11:20:27;;;;;;;42.80;19.83;;;;;;;6.42;100.00;100014.16;8307958;28;20362;-48
2022/11/20 11:24:29;;;;;;;44.80;21.08;;;;;;;6.40;100.00;100000.00;8306684;28;20053;-50
2022/11/20 11:28:30;;;;;;;46.45;19.95;;;;;;;6.46;100.00;99993.31;8309365;28;20045;-49
2022/11/20 11:32:31;;;;;;;46.85;20.52;;;;;;;6.46;100.00;99983.41;8287887;28;20589;-48
2022/11/20 11:36:34;;;;;;;45.38;20.17;;;;;;;6.47;100.00;99979.75;8266956;28;20057;-48
2022/11/20 11:40:37;;;;;;;41.88;19.08;;;;;;;6.47;100.00;99974.38;8275504;28;20069;-47
2022/11/20 11:45:17;;;;;;;45.55;19.70;;;;;;;6.49;100.00;99975.09;8282034;28;20050;-49
2022/11/20 11:53:21;;;;;;;39.72;18.38;;;;;;;6.59;100.00;99951.84;8337078;27;20637;-47
2022/11/20 12:01:47;;;;;;;45.35;19.15;;;;;;;6.83;100.00;99938.19;8298629;28;20902;-47
2022/11/20 12:05:58;;;;;;;40.97;19.85;;;;;;;6.94;100.00;99930.03;8288727;28;20504;-47
2022/11/20 12:10:01;;;;;;;46.35;20.15;;;;;;;6.96;98.99;99928.94;8303512;28;20499;-48
2022/11/20 12:18:22;;;;;;;40.72;19.17;;;;;;;7.02;98.45;99930.25;8379228;27;20399;-49
2022/11/20 12:22:53;;;;;;;47.95;21.02;;;;;;;6.96;98.73;99918.19;8376831;28;20058;-48
2022/11/20 12:27:21;;;;;;;44.47;21.05;;;;;;;7.01;98.89;99926.69;8375964;28;20484;-49
2022/11/20 12:36:07;;;;;;;42.28;19.60;;;;;;;7.19;98.67;99906.28;8314074;28;20397;-50
2022/11/20 12:40:48;;;;;;;44.30;22.33;;;;;;;7.12;98.42;99888.13;8284379;28;20038;-47
2022/11/20 12:45:14;;;;;;;43.20;18.88;;;;;;;7.25;98.02;99895.00;8307760;28;20038;-47
2022/11/20 12:49:42;;;;;;;39.28;20.10;;;;;;;7.32;97.03;99874.63;8303299;28;20398;-49
2022/11/20 12:53:57;;;;;;;39.60;19.10;;;;;;;7.38;97.75;99871.41;8311976;28;20045;-50
2022/11/20 12:58:10;;;;;;;42.20;19.33;;;;;;;7.35;96.81;99876.22;8313295;28;20406;-48
2022/11/20 13:02:38;;;;;;;54.67;25.67;;;;;;;7.49;97.98;99862.38;8305898;28;20034;-48
2022/11/20 13:06:41;;;;;;;52.28;25.95;;;;;;;7.43;97.60;99860.25;8312944;28;20462;-49
2022/11/20 13:11:07;;;;;;;39.63;18.67;;;;;;;7.37;97.59;99842.84;8312893;28;20065;-49
2022/11/20 13:15:35;;;;;;;39.65;19.42;;;;;;;7.41;98.06;99830.81;8303336;28;20154;-51
2022/11/20 13:19:36;;;;;;;43.22;20.55;;;;;;;7.38;98.59;99827.56;8297877;28;20045;-51
2022/11/20 13:23:37;;;;;;;41.35;20.65;;;;;;;7.39;98.83;99819.34;8298246;28;20037;-48
2022/11/20 13:27:47;;;;;;;41.10;20.95;;;;;;;7.31;98.81;99812.94;8284659;28;20130;-48
2022/11/20 13:31:48;;;;;;;47.47;21.10;;;;;;;7.37;100.00;99809.69;8299082;28;20050;-49
2022/11/20 13:36:20;;;;;;;42.50;20.23;;;;;;;7.29;99.69;99796.94;8305496;28;20056;-49
2022/11/20 13:40:22;;;;;;;40.92;19.38;;;;;;;7.28;100.00;99800.63;8289320;28;20546;-49
2022/11/20 13:44:44;;;;;;;41.35;18.98;;;;;;;7.32;100.00;99790.47;8288471;28;20043;-52
2022/11/20 13:48:46;;;;;;;42.92;19.50;;;;;;;7.35;100.00;99780.28;8289220;28;20516;-49
2022/11/20 13:57:40;;;;;;;45.20;20.10;;;;;;;7.40;100.00;99769.97;8384813;27;20856;-48
2022/11/20 14:01:45;;;;;;;36.05;18.05;;;;;;;7.45;100.00;99765.03;8320843;28;20041;-50
2022/11/20 14:05:54;;;;;;;40.78;18.35;;;;;;;7.45;100.00;99759.66;8363974;28;20048;-47
2022/11/20 14:09:57;;;;;;;41.38;18.55;;;;;;;7.46;100.00;99745.22;8350055;28;20040;-49
2022/11/20 14:14:12;;;;;;;42.38;18.40;;;;;;;7.50;100.00;99741.22;8369075;28;20128;-48
2022/11/20 14:18:19;;;;;;;37.92;17.73;;;;;;;7.46;100.00;99739.81;8358032;28;20459;-48
2022/11/20 14:22:24;;;;;;;40.55;18.02;;;;;;;7.48;100.00;99737.81;8370567;28;20356;-48
2022/11/20 14:26:24;;;;;;;;;;;;;;;7.46;100.00;99728.22;8402648;28;20067;-49
2022/11/20 14:30:29;;;;;;;41.97;18.80;;;;;;;7.41;100.00;99720.56;8374218;28;19930;-48
2022/11/20 14:34:32;;;;;;;40.15;18.42;;;;;;;7.38;100.00;99703.88;8374228;28;20102;-49
2022/11/20 14:38:32;;;;;;;36.70;18.42;;;;;;;7.41;100.00;99704.44;8377768;28;20046;-51
2022/11/20 14:42:33;;;;;;;44.75;20.38;;;;;;;7.38;100.00;99704.72;8377181;28;20049;-47
2022/11/20 14:46:34;;;;;;;39.30;19.15;;;;;;;7.39;100.00;99698.38;8377387;28;20036;-48
2022/11/20 14:50:35;;;;;;;40.80;18.77;;;;;;;7.41;100.00;99693.69;8376827;28;20040;-48
2022/11/20 14:54:44;;;;;;;43.30;19.90;;;;;;;7.38;100.00;99699.34;8346799;28;20037;-52
2022/11/20 14:58:56;;;;;;;46.28;20.35;;;;;;;7.31;100.00;99698.22;8364068;28;20538;-50
2022/11/20 15:02:57;;;;;;;48.92;22.48;;;;;;;7.23;100.00;99679.22;8357341;28;20044;-48
2022/11/20 15:06:59;;;;;;;45.10;20.30;;;;;;;7.25;100.00;99677.25;8352737;28;20036;-49
2022/11/20 15:11:02;;;;;;;59.42;24.38;;;;;;;7.19;100.00;99661.69;8322110;28;20405;-52
2022/11/20 15:15:05;;;;;;;54.17;24.33;;;;;;;7.22;100.00;99666.78;8339139;28;20041;-48
2022/11/20 15:19:17;;;;;;;52.40;24.30;;;;;;;7.32;100.00;99656.06;8335322;28;20041;-48
2022/11/20 15:23:19;;;;;;;55.15;24.30;;;;;;;7.24;100.00;99643.31;8333624;28;20083;-48
2022/11/20 15:27:20;;;;;;;46.22;19.73;;;;;;;7.28;100.00;99628.59;8336127;28;20458;-48
2022/11/20 15:31:23;;;;;;;47.40;20.95;;;;;;;7.34;100.00;99617.28;8331238;28;20037;-52
2022/11/20 15:35:23;;;;;;;48.22;20.02;;;;;;;7.33;100.00;99602.16;8349760;28;20073;-50
2022/11/20 15:39:24;;;;;;;51.63;22.17;;;;;;;7.38;100.00;99602.53;8340588;28;20045;-52
2022/11/20 15:43:24;;;;;;;38.70;16.90;;;;;;;7.45;100.00;99602.84;8313226;28;20395;-49
2022/11/20 15:47:28;;;;;;;30.80;13.45;;;;;;;7.57;100.00;99596.31;8322585;28;20049;-51
2022/11/20 15:51:33;;;;;;;40.42;15.32;;;;;;;7.62;100.00;99576.03;8341049;28;20050;-50
2022/11/20 15:55:34;;;;;;;24.33;11.93;;;;;;;7.65;100.00;99572.22;8332751;28;20415;-52
2022/11/20 15:59:39;;;;;;;19.48;8.00;;;;;;;7.70;100.00;99565.41;8337099;28;20041;-50
2022/11/20 16:03:40;;;;;;;15.80;7.28;;;;;;;7.74;100.00;99561.44;8346752;28;20068;-49
2022/11/20 16:07:41;;;;;;;10.32;5.70;;;;;;;7.80;100.00;99566.22;8334001;28;20044;-50
2022/11/20 16:11:42;;;;;;;6.55;4.00;;;;;;;7.79;100.00;99553.78;8333865;28;20124;-51
2022/11/20 16:15:52;;;;;;;8.73;3.10;;;;;;;7.80;100.00;99550.09;8329430;28;20071;-50
2022/11/20 16:19:53;;;;;;;8.95;2.55;;;;;;;7.80;100.00;99544.72;8360885;28;20028;-50
2022/11/20 16:23:53;;;;;;;5.93;3.33;;;;;;;7.78;100.00;99540.47;8349473;28;20037;-53
2022/11/20 16:27:54;;;;;;;5.97;2.72;;;;;;;7.79;100.00;99536.78;8345818;28;20064;-48
2022/11/20 16:31:56;;;;;;;7.05;3.90;;;;;;;7.89;100.00;99542.97;8347602;28;20253;-50
2022/11/20 16:35:57;;;;;;;5.03;3.90;;;;;;;7.86;100.00;99538.75;8370329;28;20044;-49
2022/11/20 16:39:57;;;;;;;7.65;2.58;;;;;;;7.91;100.00;99531.09;8334391;28;20628;-49
2022/11/20 16:44:00;;;;;;;4.45;2.25;;;;;;;7.96;100.00;99518.00;8359597;28;20048;-49
2022/11/20 16:48:01;;;;;;;3.53;1.98;;;;;;;7.97;100.00;99517.00;8345366;28;20030;-48
2022/11/20 16:52:02;;;;;;;2.83;2.22;;;;;;;7.96;100.00;99511.78;8351847;28;20044;-49
2022/11/20 16:56:19;;;;;;;6.05;2.83;;;;;;;7.95;100.00;99492.09;8361750;28;20041;-49
2022/11/20 17:00:20;;;;;;;7.47;3.83;;;;;;;7.95;100.00;99489.41;8329506;28;20465;-49
2022/11/20 17:04:21;;;;;;;9.00;3.20;;;;;;;7.92;100.00;99473.56;8331795;28;20045;-50
2022/11/20 17:08:21;;;;;;;4.70;2.95;;;;;;;7.92;100.00;99468.19;8330709;28;20094;-49
2022/11/20 17:12:22;;;;;;;9.05;2.70;;;;;;;7.89;100.00;99446.97;8344025;28;20043;-53
2022/11/20 17:16:23;;;;;;;11.32;3.45;;;;;;;7.86;100.00;99451.78;8335059;28;20087;-49
2022/11/20 17:20:24;;;;;;;5.10;3.10;;;;;;;7.86;100.00;99436.50;8316687;28;20037;-51
2022/11/20 17:24:25;;;;;;;5.13;3.30;;;;;;;7.90;100.00;99437.88;8328147;28;20033;-50
2022/11/20 17:28:26;;;;;;;5.60;3.33;;;;;;;7.93;100.00;99436.75;8332477;28;20507;-50
2022/11/20 17:32:27;;;;;;;4.03;2.30;;;;;;;7.93;100.00;99432.19;8333128;28;20048;-50
2022/11/20 17:36:28;;;;;;;2.60;2.28;;;;;;;7.96;100.00;99410.38;8345222;28;20519;-52
2022/11/20 17:40:30;;;;;;;2.88;1.95;;;;;;;7.94;100.00;99417.75;8344821;28;20045;-49
2022/11/20 17:44:31;;;;;;;4.22;1.80;;;;;;;7.93;100.00;99404.47;8342217;28;20455;-49
2022/11/20 17:48:32;;;;;;;4.22;1.60;;;;;;;7.94;100.00;99412.34;8341433;28;20045;-49
2022/11/20 17:52:33;;;;;;;2.15;1.17;;;;;;;7.97;100.00;99411.22;8338047;28;20041;-49
2022/11/20 17:58:07;;;;;;;5.88;1.33;;;;;;;7.98;100.00;99392.25;8342193;28;20366;-49
2022/11/20 18:00:55;;;;;;;3.25;1.67;;;;;;;8.07;100.00;99394.03;8345724;28;20097;-48
2022/11/20 18:04:55;;;;;;;2.95;1.50;;;;;;;8.23;100.00;99384.47;8343630;28;20065;-47
2022/11/20 18:08:59;;;;;;;3.97;2.08;;;;;;;8.38;100.00;99372.97;8341076;28;20045;-49
2022/11/20 18:12:59;;;;;;;8.38;2.47;;;;;;;8.56;100.00;99365.72;8346218;28;20755;-47
2022/11/20 18:17:17;;;;;;;7.88;3.53;;;;;;;8.71;100.00;99364.16;8344090;28;20422;-49
2022/11/20 18:21:18;;;;;;;9.35;4.10;;;;;;;8.89;100.00;99362.28;8337603;28;20035;-50
2022/11/20 18:25:18;;;;;;;8.88;3.70;;;;;;;8.98;100.00;99371.25;8342033;28;20060;-49
2022/11/20 18:29:19;;;;;;;11.10;4.70;;;;;;;9.04;100.00;99370.63;8336963;28;20522;-48
2022/11/20 18:33:20;;;;;;;18.05;4.47;;;;;;;9.10;100.00;99361.91;8343376;28;20367;-48
2022/11/20 18:37:21;;;;;;;21.77;5.03;;;;;;;9.17;100.00;99368.34;8343784;28;20638;-48
2022/11/20 18:45:45;;;;;;;12.85;4.45;;;;;;;9.18;100.00;99361.97;8355480;28;20040;-47
2022/11/20 18:49:51;;;;;;;11.57;3.70;;;;;;;9.20;100.00;99365.31;8353239;28;20091;-48
2022/11/20 18:53:52;;;;;;;18.65;3.63;;;;;;;9.25;100.00;99360.31;8353651;28;20545;-49
2022/11/20 18:57:54;;;;;;;10.77;3.60;;;;;;;9.34;100.00;99359.34;8354051;28;20091;-50
2022/11/20 19:01:55;;;;;;;14.60;3.67;;;;;;;9.32;100.00;99358.66;8356821;28;20127;-49
2022/11/20 19:05:55;;;;;;;18.05;3.40;;;;;;;9.31;100.00;99340.78;8352461;28;20041;-49
2022/11/20 19:09:56;;;;;;;19.52;3.55;;;;;;;9.35;100.00;99331.34;8353124;28;20045;-49